createdAt,value
2023-08-26T00:02:35.850Z,17.85
2023-08-26T00:05:42.236Z,17.81
2023-08-26T00:08:48.045Z,17.81
2023-08-26T00:11:53.793Z,17.80
2023-08-26T00:14:59.641Z,17.80
2023-08-26T00:18:05.216Z,17.78
2023-08-26T00:21:12.783Z,17.77
2023-08-26T00:24:19.456Z,17.71
2023-08-26T00:27:26.439Z,17.66
2023-08-26T00:30:32.788Z,17.61
2023-08-26T00:33:38.975Z,17.56
2023-08-26T00:36:46.123Z,17.52
2023-08-26T00:39:50.676Z,17.46
2023-08-26T00:42:57.160Z,17.43
2023-08-26T00:46:04.313Z,17.41
2023-08-26T00:49:10.414Z,17.38
2023-08-26T00:52:17.798Z,17.32
2023-08-26T00:55:24.692Z,17.28
2023-08-26T00:58:30.832Z,17.23
2023-08-26T01:01:36.192Z,17.19
2023-08-26T01:04:42.034Z,17.17
2023-08-26T01:07:47.804Z,17.15
2023-08-26T01:11:39.639Z,17.15
2023-08-26T01:14:52.699Z,17.13
2023-08-26T01:17:58.297Z,17.08
2023-08-26T01:21:04.990Z,17.05
2023-08-26T01:24:12.174Z,17.05
2023-08-26T01:27:19.261Z,17.00
2023-08-26T01:30:26.977Z,16.97
2023-08-26T01:33:37.673Z,16.95
2023-08-26T01:36:42.659Z,16.95
2023-08-26T01:39:48.836Z,16.95
2023-08-26T01:42:57.000Z,16.95
2023-08-26T01:46:02.619Z,16.91
2023-08-26T01:49:07.824Z,16.90
2023-08-26T01:52:12.454Z,16.90
2023-08-26T01:55:17.815Z,16.95
2023-08-26T01:58:24.887Z,16.96
2023-08-26T02:01:30.151Z,16.99
2023-08-26T02:04:36.736Z,17.05
2023-08-26T02:07:42.556Z,17.09
2023-08-26T02:10:49.174Z,17.11
2023-08-26T02:13:56.630Z,17.13
2023-08-26T02:17:03.305Z,17.13
2023-08-26T02:20:10.684Z,17.14
2023-08-26T02:23:17.582Z,17.13
2023-08-26T02:26:23.132Z,17.13
2023-08-26T02:29:29.093Z,17.09
2023-08-26T02:32:34.135Z,17.05
2023-08-26T02:35:40.279Z,17.01
2023-08-26T02:38:46.558Z,17.00
2023-08-26T02:41:52.615Z,16.96
2023-08-26T02:44:59.907Z,16.91
2023-08-26T02:48:05.757Z,16.89
2023-08-26T02:51:15.612Z,16.90
2023-08-26T02:54:20.671Z,16.91
2023-08-26T02:57:27.858Z,16.85
2023-08-26T03:00:34.920Z,16.83
2023-08-26T03:03:41.078Z,16.80
2023-08-26T03:06:47.969Z,16.76
2023-08-26T03:09:54.442Z,16.75
2023-08-26T03:13:00.613Z,16.72
2023-08-26T03:16:07.436Z,16.71
2023-08-26T03:19:14.092Z,16.71
2023-08-26T03:22:19.907Z,16.74
2023-08-26T03:25:19.512Z,16.74
2023-08-26T03:28:26.596Z,16.75
2023-08-26T03:31:34.060Z,16.74
2023-08-26T03:34:40.800Z,16.73
2023-08-26T03:37:48.011Z,16.71
2023-08-26T03:40:56.475Z,16.72
2023-08-26T03:44:02.263Z,16.74
2023-08-26T03:47:07.454Z,16.76
2023-08-26T03:50:14.590Z,16.83
2023-08-26T03:53:20.499Z,16.88
2023-08-26T03:56:26.403Z,16.93
2023-08-26T03:59:32.401Z,17.00
2023-08-26T04:02:38.810Z,17.06
2023-08-26T04:05:44.530Z,17.11
2023-08-26T04:08:52.165Z,17.18
2023-08-26T04:11:58.219Z,17.24
2023-08-26T04:15:03.913Z,17.29
2023-08-26T04:18:11.315Z,17.37
2023-08-26T04:21:17.462Z,17.45
2023-08-26T04:24:23.327Z,17.55
2023-08-26T04:27:27.911Z,17.65
2023-08-26T04:30:33.593Z,17.74
2023-08-26T04:33:40.872Z,17.84
2023-08-26T04:36:46.683Z,17.91
2023-08-26T04:39:52.826Z,17.99
2023-08-26T04:42:59.849Z,18.06
2023-08-26T04:46:07.138Z,18.15
2023-08-26T04:49:14.221Z,18.24
2023-08-26T04:52:19.762Z,18.34
2023-08-26T04:55:26.128Z,18.45
2023-08-26T04:58:31.600Z,18.53
2023-08-26T05:01:39.176Z,18.62
2023-08-26T05:04:45.837Z,18.72
2023-08-26T05:07:51.930Z,18.83
2023-08-26T05:10:58.322Z,18.94
2023-08-26T05:14:04.343Z,19.00
2023-08-26T05:17:09.807Z,19.08
2023-08-26T05:20:16.788Z,19.18
2023-08-26T05:23:21.640Z,19.27
2023-08-26T05:26:26.676Z,19.37
2023-08-26T05:29:33.444Z,19.47
2023-08-26T05:32:41.303Z,19.56
2023-08-26T05:35:47.564Z,19.65
2023-08-26T05:38:53.548Z,19.74
2023-08-26T05:41:58.726Z,19.81
2023-08-26T05:45:05.806Z,19.90
2023-08-26T05:48:11.479Z,20.01
2023-08-26T05:51:10.750Z,20.12
2023-08-26T05:54:18.634Z,20.23
2023-08-26T05:57:24.179Z,20.34
2023-08-26T06:00:35.450Z,20.45
2023-08-26T06:03:40.852Z,20.55
2023-08-26T06:06:47.451Z,20.65
2023-08-26T06:09:52.537Z,20.78
2023-08-26T06:12:58.746Z,20.89
2023-08-26T06:16:11.739Z,21.01
2023-08-26T06:19:18.513Z,21.15
2023-08-26T06:22:23.646Z,21.26
2023-08-26T06:25:29.789Z,21.39
2023-08-26T06:28:36.160Z,21.51
2023-08-26T06:31:41.853Z,21.63
2023-08-26T06:34:47.974Z,21.75
2023-08-26T06:37:54.069Z,21.86
2023-08-26T06:40:59.392Z,21.96
2023-08-26T06:44:05.965Z,22.09
2023-08-26T06:47:15.002Z,22.19
2023-08-26T06:50:23.958Z,22.32
2023-08-26T06:53:31.756Z,22.44
2023-08-26T06:56:38.548Z,22.55
2023-08-26T06:59:46.324Z,22.69
2023-08-26T07:02:51.257Z,22.82
2023-08-26T07:06:03.180Z,22.93
2023-08-26T07:09:10.858Z,23.08
2023-08-26T07:12:15.627Z,23.20
2023-08-26T07:15:21.986Z,23.35
2023-08-26T07:18:27.518Z,23.48
2023-08-26T07:21:34.364Z,23.64
2023-08-26T07:24:39.829Z,23.80
2023-08-26T07:27:45.684Z,23.96
2023-08-26T07:30:52.756Z,24.13
2023-08-26T07:34:00.071Z,24.31
2023-08-26T07:37:08.268Z,24.44
2023-08-26T07:40:17.810Z,24.57
2023-08-26T07:43:22.745Z,24.66
2023-08-26T07:49:37.607Z,24.77
2023-08-26T07:52:42.647Z,24.84
2023-08-26T07:55:50.483Z,24.88
2023-08-26T07:58:57.237Z,24.92
2023-08-26T08:02:04.164Z,24.97
2023-08-26T08:05:11.244Z,25.02
2023-08-26T08:08:16.383Z,25.08
2023-08-26T08:11:21.343Z,25.12
2023-08-26T08:14:27.083Z,25.17
2023-08-26T08:17:33.443Z,25.23
2023-08-26T08:20:39.654Z,25.29
2023-08-26T08:23:46.147Z,25.33
2023-08-26T08:26:51.684Z,25.38
2023-08-26T08:29:59.029Z,25.43
2023-08-26T08:33:04.823Z,25.47
2023-08-26T08:36:11.808Z,25.53
2023-08-26T08:39:17.940Z,25.57
2023-08-26T08:42:25.915Z,25.64
2023-08-26T08:45:31.547Z,25.71
2023-08-26T08:48:39.308Z,25.77
2023-08-26T08:51:44.665Z,25.86
2023-08-26T08:54:50.043Z,25.94
2023-08-26T08:57:58.767Z,26.00
2023-08-26T09:01:06.885Z,26.07
2023-08-26T09:04:11.956Z,26.13
2023-08-26T09:07:22.504Z,26.19
2023-08-26T09:10:26.724Z,26.27
2023-08-26T09:13:31.355Z,26.35
2023-08-26T09:16:45.252Z,26.41
2023-08-26T09:19:52.971Z,26.48
2023-08-26T09:22:59.036Z,26.56
2023-08-26T09:26:10.868Z,26.63
2023-08-26T09:29:17.343Z,26.71
2023-08-26T09:32:24.894Z,26.79
2023-08-26T09:38:42.472Z,26.93
2023-08-26T09:41:48.213Z,27.00
2023-08-26T09:44:56.421Z,27.08
2023-08-26T09:48:05.705Z,27.17
2023-08-26T09:51:12.432Z,27.26
2023-08-26T09:54:18.648Z,27.26
2023-08-26T09:57:25.890Z,27.32
2023-08-26T10:00:32.871Z,27.42
2023-08-26T10:03:39.983Z,27.52
2023-08-26T10:06:46.443Z,27.62
2023-08-26T10:10:07.590Z,27.73
2023-08-26T10:13:18.882Z,27.80
2023-08-26T10:16:33.920Z,27.80
2023-08-26T10:19:34.833Z,27.85
2023-08-26T10:22:41.436Z,27.97
2023-08-26T10:25:47.632Z,28.13
2023-08-26T10:28:55.350Z,28.26
2023-08-26T10:32:00.631Z,28.33
2023-08-26T10:35:14.572Z,28.28
2023-08-26T10:38:28.206Z,28.41
2023-08-26T10:41:33.910Z,28.53
2023-08-26T10:44:53.515Z,28.65
2023-08-26T10:48:00.477Z,28.76
2023-08-26T10:51:16.568Z,28.80
2023-08-26T10:54:24.804Z,28.68
2023-08-26T10:57:30.678Z,28.52
2023-08-26T11:00:38.173Z,28.52
2023-08-26T11:03:45.383Z,28.65
2023-08-26T11:06:53.972Z,28.84
2023-08-26T11:10:01.458Z,28.99
2023-08-26T11:13:06.789Z,29.23
2023-08-26T11:16:15.483Z,29.23
2023-08-26T11:19:22.844Z,29.27
2023-08-26T11:22:28.899Z,29.22
2023-08-26T11:25:34.449Z,29.32
2023-08-26T11:28:41.416Z,29.46
2023-08-26T11:31:49.104Z,29.60
2023-08-26T11:34:55.926Z,29.77
2023-08-26T11:38:05.172Z,29.87
2023-08-26T11:41:12.817Z,29.88
2023-08-26T11:44:23.252Z,29.80
2023-08-26T11:47:30.324Z,29.76
2023-08-26T11:50:35.318Z,29.79
2023-08-26T11:53:41.108Z,29.87
2023-08-26T11:56:46.211Z,29.92
2023-08-26T11:59:54.686Z,29.96
2023-08-26T12:03:07.035Z,29.99
2023-08-26T12:06:13.892Z,30.09
2023-08-26T12:09:20.168Z,30.14
2023-08-26T12:12:26.616Z,30.20
2023-08-26T12:15:33.559Z,30.26
2023-08-26T12:18:39.029Z,30.40
2023-08-26T12:21:47.574Z,30.52
2023-08-26T12:24:54.838Z,30.56
2023-08-26T12:28:01.789Z,30.60
2023-08-26T12:31:07.039Z,30.60
2023-08-26T12:34:13.214Z,30.58
2023-08-26T12:37:21.713Z,30.57
2023-08-26T12:40:30.346Z,30.60
2023-08-26T12:43:37.749Z,30.58
2023-08-26T12:46:44.111Z,30.58
2023-08-26T12:49:50.818Z,30.63
2023-08-26T12:52:56.307Z,30.67
2023-08-26T12:56:02.343Z,30.69
2023-08-26T12:59:07.631Z,30.72
2023-08-26T13:02:14.348Z,30.73
2023-08-26T13:05:24.091Z,30.72
2023-08-26T13:08:29.682Z,30.70
2023-08-26T13:11:34.829Z,30.70
2023-08-26T13:14:40.811Z,30.74
2023-08-26T13:17:46.533Z,30.68
2023-08-26T13:20:56.517Z,30.62
2023-08-26T13:24:01.646Z,30.55
2023-08-26T13:27:08.368Z,30.42
2023-08-26T13:30:14.512Z,30.34
2023-08-26T13:33:23.020Z,30.28
2023-08-26T13:36:36.232Z,30.24
2023-08-26T13:39:36.836Z,30.24
2023-08-26T13:42:42.403Z,30.25
2023-08-26T13:45:49.196Z,30.28
2023-08-26T13:48:56.298Z,30.32
2023-08-26T13:52:02.278Z,30.28
2023-08-26T13:55:08.726Z,30.23
2023-08-26T13:58:14.329Z,30.16
2023-08-26T14:01:19.721Z,30.14
2023-08-26T14:04:27.028Z,30.13
2023-08-26T14:07:35.043Z,30.15
2023-08-26T14:10:41.519Z,30.17
2023-08-26T14:13:47.663Z,30.20
2023-08-26T14:16:53.210Z,30.23
2023-08-26T14:19:59.764Z,30.25
2023-08-26T14:23:07.164Z,30.27
2023-08-26T14:26:13.322Z,30.25
2023-08-26T14:29:19.625Z,30.20
2023-08-26T14:32:26.376Z,30.13
2023-08-26T14:35:31.920Z,30.09
2023-08-26T14:38:37.202Z,30.04
2023-08-26T14:41:44.336Z,30.02
2023-08-26T14:44:49.754Z,29.97
2023-08-26T14:47:56.963Z,29.89
2023-08-26T14:51:09.445Z,29.79
2023-08-26T14:54:13.934Z,29.66
2023-08-26T14:57:20.716Z,29.53
2023-08-26T15:00:26.630Z,29.42
2023-08-26T15:03:32.466Z,29.36
2023-08-26T15:06:38.062Z,29.29
2023-08-26T15:09:44.859Z,29.21
2023-08-26T15:12:51.543Z,29.11
2023-08-26T15:16:02.159Z,29.04
2023-08-26T15:19:08.804Z,29.00
2023-08-26T15:22:16.762Z,28.97
2023-08-26T15:25:22.839Z,28.94
2023-08-26T15:28:28.501Z,28.93
2023-08-26T15:31:33.578Z,28.92
2023-08-26T15:34:38.681Z,28.87
2023-08-26T15:37:45.556Z,28.76
2023-08-26T15:40:52.753Z,28.64
2023-08-26T15:43:58.796Z,28.33
2023-08-26T15:47:05.287Z,28.17
2023-08-26T15:50:12.301Z,28.17
2023-08-26T15:53:19.019Z,28.04
2023-08-26T15:56:24.205Z,27.92
2023-08-26T15:59:29.540Z,27.83
2023-08-26T16:02:35.265Z,27.74
2023-08-26T16:05:42.500Z,27.68
2023-08-26T16:08:48.726Z,27.61
2023-08-26T16:11:53.335Z,27.52
2023-08-26T16:15:00.379Z,27.40
2023-08-26T16:18:06.707Z,27.27
2023-08-26T16:21:12.789Z,27.15
2023-08-26T16:24:20.785Z,27.01
2023-08-26T16:27:27.650Z,26.88
2023-08-26T16:30:32.801Z,26.74
2023-08-26T16:33:39.065Z,26.61
2023-08-26T16:36:44.889Z,26.51
2023-08-26T16:39:51.482Z,26.41
2023-08-26T16:42:57.898Z,26.33
2023-08-26T16:46:06.594Z,26.25
2023-08-26T16:49:12.855Z,26.18
2023-08-26T16:52:20.927Z,26.09
2023-08-26T16:55:27.482Z,26.05
2023-08-26T16:58:33.329Z,25.97
2023-08-26T17:01:38.717Z,25.92
2023-08-26T17:04:45.028Z,25.87
2023-08-26T17:07:50.405Z,25.82
2023-08-26T17:10:56.115Z,25.77
2023-08-26T17:14:01.472Z,25.73
2023-08-26T17:17:08.886Z,25.69
2023-08-26T17:20:15.288Z,25.63
2023-08-26T17:23:20.684Z,25.59
2023-08-26T17:26:26.524Z,25.53
2023-08-26T17:29:32.341Z,25.47
2023-08-26T17:32:39.396Z,25.44
2023-08-26T17:35:46.274Z,25.39
2023-08-26T17:38:53.666Z,25.35
2023-08-26T17:42:00.617Z,25.32
2023-08-26T17:45:05.767Z,25.28
2023-08-26T17:48:11.714Z,25.23
2023-08-26T17:51:18.268Z,25.16
2023-08-26T17:54:23.257Z,25.12
2023-08-26T17:57:32.093Z,25.07
2023-08-26T18:00:37.804Z,25.03
2023-08-26T18:03:43.568Z,24.98
2023-08-26T18:06:50.090Z,24.90
2023-08-26T18:09:56.304Z,24.83
2023-08-26T18:13:04.893Z,24.76
2023-08-26T18:16:10.471Z,24.71
2023-08-26T18:19:16.620Z,24.68
2023-08-26T18:22:22.676Z,24.65
2023-08-26T18:25:30.969Z,24.62
2023-08-26T18:28:37.362Z,24.60
2023-08-26T18:31:42.983Z,24.57
2023-08-26T18:34:52.446Z,24.54
2023-08-26T18:38:00.184Z,24.53
2023-08-26T18:41:13.480Z,24.52
2023-08-26T18:44:20.837Z,24.50
2023-08-26T18:47:27.322Z,24.48
2023-08-26T18:50:33.623Z,24.45
2023-08-26T18:53:39.457Z,24.42
2023-08-26T18:56:45.527Z,24.40
2023-08-26T18:59:52.108Z,24.38
2023-08-26T19:02:59.013Z,24.36
2023-08-26T19:06:05.874Z,24.35
2023-08-26T19:09:11.659Z,24.34
2023-08-26T19:12:18.908Z,24.32
2023-08-26T19:15:25.295Z,24.29
2023-08-26T19:18:33.091Z,24.27
2023-08-26T19:21:40.158Z,24.25
2023-08-26T19:24:47.969Z,24.20
2023-08-26T19:27:55.098Z,24.18
2023-08-26T19:31:01.866Z,24.15
2023-08-26T19:34:06.945Z,24.13
2023-08-26T19:37:11.556Z,24.11
2023-08-26T19:40:20.197Z,24.09
2023-08-26T19:43:26.911Z,24.07
2023-08-26T19:46:32.917Z,24.03
2023-08-26T19:49:41.465Z,24.05
2023-08-26T19:52:48.296Z,24.05
2023-08-26T19:55:54.633Z,24.04
2023-08-26T19:58:59.926Z,24.04
2023-08-26T20:02:06.254Z,24.04
2023-08-26T20:05:13.215Z,24.03
2023-08-26T20:08:21.014Z,24.01
2023-08-26T20:11:26.850Z,23.98
2023-08-26T20:14:33.246Z,23.96
2023-08-26T20:17:40.958Z,23.92
2023-08-26T20:20:48.107Z,23.88
2023-08-26T20:23:53.828Z,23.86
2023-08-26T20:26:59.632Z,23.84
2023-08-26T20:30:05.133Z,23.82
2023-08-26T20:33:12.031Z,23.79
2023-08-26T20:36:18.276Z,23.76
2023-08-26T20:39:24.390Z,23.75
2023-08-26T20:42:31.819Z,23.72
2023-08-26T20:45:37.765Z,23.70
2023-08-26T20:48:44.046Z,23.65
2023-08-26T20:51:50.198Z,23.59
2023-08-26T20:54:55.117Z,23.56
2023-08-26T20:58:01.727Z,23.52
2023-08-26T21:01:11.098Z,23.47
2023-08-26T21:04:16.947Z,23.44
2023-08-26T21:07:24.264Z,23.40
2023-08-26T21:10:32.484Z,23.35
2023-08-26T21:13:37.996Z,23.34
2023-08-26T21:16:45.447Z,23.29
2023-08-26T21:19:51.539Z,23.24
2023-08-26T21:22:57.232Z,23.21
2023-08-26T21:26:07.520Z,23.19
2023-08-26T21:29:13.739Z,23.15
2023-08-26T21:32:19.002Z,23.10
2023-08-26T21:35:25.174Z,23.06
2023-08-26T21:38:30.232Z,23.03
2023-08-26T21:41:36.184Z,23.00
2023-08-26T21:44:41.827Z,22.97
2023-08-26T21:47:48.140Z,22.94
2023-08-26T21:51:01.222Z,22.90
2023-08-26T21:54:08.525Z,22.90
2023-08-26T21:57:14.872Z,22.87
2023-08-26T22:00:20.908Z,22.84
2023-08-26T22:03:26.698Z,22.81
2023-08-26T22:06:33.506Z,22.78
2023-08-26T22:09:39.437Z,22.77
2023-08-26T22:12:45.217Z,22.73
2023-08-26T22:15:50.583Z,22.71
2023-08-26T22:18:56.899Z,22.68
2023-08-26T22:22:04.138Z,22.66
2023-08-26T22:25:10.138Z,22.66
2023-08-26T22:28:15.795Z,22.64
2023-08-26T22:31:21.645Z,22.60
2023-08-26T22:34:26.931Z,22.58
2023-08-26T22:37:34.824Z,22.56
2023-08-26T22:40:39.992Z,22.55
2023-08-26T22:43:46.504Z,22.52
2023-08-26T22:46:53.807Z,22.52
2023-08-26T22:49:59.490Z,22.51
2023-08-26T22:53:05.420Z,22.47
2023-08-26T22:56:10.671Z,22.46
2023-08-26T22:59:17.462Z,22.43
2023-08-26T23:02:22.768Z,22.40
2023-08-26T23:05:29.995Z,22.39
2023-08-26T23:08:36.120Z,22.33
2023-08-26T23:11:42.402Z,22.31
2023-08-26T23:14:50.310Z,22.27
2023-08-26T23:17:56.892Z,22.23
2023-08-26T23:21:03.199Z,22.19
2023-08-26T23:24:09.816Z,22.13
2023-08-26T23:27:16.604Z,22.09
2023-08-26T23:30:24.735Z,22.04
2023-08-26T23:33:30.521Z,21.98
2023-08-26T23:36:35.754Z,21.93
2023-08-26T23:39:43.204Z,21.88
2023-08-26T23:42:49.664Z,21.83
2023-08-26T23:45:55.404Z,21.77
2023-08-26T23:49:01.072Z,21.71
2023-08-26T23:52:06.644Z,21.64
2023-08-26T23:55:13.840Z,21.59
2023-08-26T23:58:20.426Z,21.54
